Bruni, Texas
Current Conditions -  °F | °C
As of 4:55 AM on Friday 31 Oct 2014 (Local Time) from KHBV Reporting Station
Overcast Overcast  
Wind Chill: 63°   Ceiling: 500
Heat Index: 63°   Visibility: 0.5mi
Dew Point: 62°   Wind: 3mph
Humidity: 96%   Direction: 220°SW
Pressure: 30.08"   Gusts: NA
Location:  27.43°N, 98.84°W
Report Text: KHBV 310955Z AUTO 22003KT 1/2SM VV005 17/17 A3008 RMK AO2 T01730167 PWINO
Loading
Personal Weather Stations






























Interactive Weather Map
Tropical Storm Tracking
New forecast layout! Learn more

10-Day Weather Forecast

Advertisements
Track Severe Weather on mobile